createdAt,value
2019-05-18T00:02:09.327Z,77.19
2019-05-18T00:07:03.924Z,77.08
2019-05-18T00:11:58.526Z,77.51
2019-05-18T00:16:53.120Z,78.51
2019-05-18T00:21:47.807Z,78.87
2019-05-18T00:26:42.383Z,78.81
2019-05-18T00:31:36.995Z,78.42
2019-05-18T00:36:31.617Z,76.73
2019-05-18T00:41:26.221Z,76.25
2019-05-18T00:46:20.799Z,76.11
2019-05-18T00:51:15.388Z,76.73
2019-05-18T00:56:10.535Z,77.30
2019-05-18T01:01:05.983Z,77.56
2019-05-18T01:06:00.566Z,78.09
2019-05-18T01:10:55.227Z,78.46
2019-05-18T01:15:49.837Z,79.20
2019-05-18T01:20:44.586Z,79.50
2019-05-18T01:25:39.188Z,79.43
2019-05-18T01:30:33.788Z,79.46
2019-05-18T01:35:28.375Z,79.36
2019-05-18T01:40:23.209Z,79.23
2019-05-18T01:45:19.458Z,79.00
2019-05-18T01:50:14.596Z,78.64
2019-05-18T01:55:09.587Z,78.69
2019-05-18T02:00:06.835Z,78.99
2019-05-18T02:05:01.534Z,79.26
2019-05-18T02:09:56.118Z,79.31
2019-05-18T02:14:50.717Z,80.33
2019-05-18T02:19:45.295Z,81.05
2019-05-18T02:24:39.903Z,81.37
2019-05-18T02:29:34.552Z,81.49
2019-05-18T02:34:29.194Z,81.81
2019-05-18T02:39:23.776Z,82.28
2019-05-18T02:44:18.403Z,82.19
2019-05-18T02:49:13.064Z,82.97
2019-05-18T02:54:07.806Z,83.24
2019-05-18T02:59:02.393Z,83.34
2019-05-18T03:03:57.065Z,83.47
2019-05-18T03:08:51.788Z,83.71
2019-05-18T03:13:46.427Z,83.81
2019-05-18T03:18:41.170Z,84.14
2019-05-18T03:23:35.848Z,84.26
2019-05-18T03:28:30.456Z,84.02
2019-05-18T03:33:29.579Z,83.59
2019-05-18T03:38:21.373Z,83.20
2019-05-18T03:43:15.968Z,83.78
2019-05-18T03:48:10.580Z,84.55
2019-05-18T03:53:05.163Z,84.82
2019-05-18T03:57:59.745Z,84.17
2019-05-18T04:02:54.333Z,83.70
2019-05-18T04:07:48.949Z,83.58
2019-05-18T04:12:43.550Z,82.95
2019-05-18T04:17:38.152Z,80.29
2019-05-18T04:22:32.759Z,79.39
2019-05-18T04:27:27.364Z,79.39
2019-05-18T04:32:21.974Z,79.83
2019-05-18T04:37:16.573Z,80.01
2019-05-18T04:42:11.169Z,80.45
2019-05-18T04:47:06.825Z,80.76
2019-05-18T04:52:01.423Z,80.75
2019-05-18T04:56:56.028Z,81.17
2019-05-18T05:01:50.654Z,80.77
2019-05-18T05:06:45.549Z,80.88
2019-05-18T05:11:40.163Z,79.47
2019-05-18T05:16:35.327Z,80.16
2019-05-18T05:21:30.659Z,79.65
2019-05-18T05:26:25.256Z,78.61
2019-05-18T05:31:19.858Z,77.05
2019-05-18T05:36:14.436Z,76.71
2019-05-18T05:41:09.053Z,76.87
2019-05-18T05:46:03.666Z,76.00
2019-05-18T05:50:58.260Z,75.42
2019-05-18T05:55:52.849Z,74.05
2019-05-18T06:00:47.444Z,72.30
2019-05-18T06:05:42.038Z,70.11
2019-05-18T06:10:36.652Z,70.35
2019-05-18T06:15:31.249Z,70.15
2019-05-18T06:20:25.851Z,69.68
2019-05-18T06:25:20.456Z,68.44
2019-05-18T06:30:16.543Z,68.26
2019-05-18T06:35:11.860Z,68.08
2019-05-18T06:40:08.373Z,68.12
2019-05-18T06:45:03.363Z,67.29
2019-05-18T06:49:57.961Z,67.38
2019-05-18T06:54:52.566Z,68.20
2019-05-18T06:59:47.268Z,67.78
2019-05-18T07:04:44.500Z,66.54
2019-05-18T07:09:38.249Z,65.96
2019-05-18T07:14:32.921Z,65.26
2019-05-18T07:19:27.518Z,63.60
2019-05-18T07:24:22.252Z,62.46
2019-05-18T07:29:16.846Z,60.42
2019-05-18T07:34:11.454Z,58.58
2019-05-18T07:39:07.811Z,58.19
2019-05-18T07:44:02.423Z,60.08
2019-05-18T07:48:57.060Z,60.81
2019-05-18T07:53:51.665Z,58.82
2019-05-18T07:58:46.277Z,58.79
2019-05-18T08:03:40.844Z,56.86
2019-05-18T08:08:35.472Z,55.68
2019-05-18T08:13:30.071Z,54.64
2019-05-18T08:18:24.663Z,55.76
2019-05-18T08:23:19.237Z,53.64
2019-05-18T08:28:13.922Z,53.94
2019-05-18T08:33:08.690Z,53.66
2019-05-18T08:38:03.441Z,55.01
2019-05-18T08:42:58.088Z,53.68
2019-05-18T08:47:52.683Z,52.89
2019-05-18T08:52:47.284Z,52.33
2019-05-18T08:57:41.866Z,52.83
2019-05-18T09:02:36.600Z,54.89
2019-05-18T09:07:31.214Z,55.40
2019-05-18T09:12:25.793Z,53.31
2019-05-18T09:17:20.422Z,53.54
2019-05-18T09:22:22.808Z,51.29
2019-05-18T09:27:11.331Z,51.01
2019-05-18T09:32:06.081Z,51.71
2019-05-18T09:37:00.684Z,48.95
2019-05-18T09:41:55.299Z,48.32
2019-05-18T09:46:49.956Z,46.50
2019-05-18T09:51:44.556Z,48.84
2019-05-18T09:56:39.229Z,47.37
2019-05-18T10:01:33.845Z,45.67
2019-05-18T10:06:31.377Z,46.05
2019-05-18T10:11:24.802Z,44.90
2019-05-18T10:16:19.413Z,46.89
2019-05-18T10:21:14.061Z,46.75
2019-05-18T10:26:08.780Z,46.70
2019-05-18T10:31:03.385Z,48.17
2019-05-18T10:35:58.010Z,47.92
2019-05-18T10:40:52.612Z,45.76
2019-05-18T10:45:47.196Z,45.98
2019-05-18T10:50:42.759Z,44.24
2019-05-18T10:55:37.427Z,43.92
2019-05-18T11:00:32.045Z,45.29
2019-05-18T11:05:26.705Z,44.07
2019-05-18T11:10:21.757Z,45.22
2019-05-18T11:15:17.085Z,45.33
2019-05-18T11:20:14.927Z,44.35
2019-05-18T11:25:10.214Z,43.33
2019-05-18T11:30:10.184Z,44.17
2019-05-18T11:35:10.473Z,43.12
2019-05-18T11:40:08.489Z,41.84
2019-05-18T11:45:03.172Z,41.44
2019-05-18T11:49:57.767Z,40.48
2019-05-18T11:54:52.362Z,40.57
2019-05-18T11:59:46.970Z,39.76
2019-05-18T12:04:41.549Z,39.07
2019-05-18T12:09:36.205Z,39.80
2019-05-18T12:14:30.896Z,39.63
2019-05-18T12:19:25.591Z,38.94
2019-05-18T12:24:20.193Z,38.24
2019-05-18T12:29:14.788Z,38.24
2019-05-18T12:34:09.383Z,38.81
2019-05-18T12:39:05.713Z,38.42
2019-05-18T12:44:00.446Z,39.07
2019-05-18T12:48:55.121Z,38.51
2019-05-18T12:53:50.283Z,38.11
2019-05-18T12:58:44.909Z,37.40
2019-05-18T13:03:39.484Z,37.38
2019-05-18T13:08:34.078Z,37.05
2019-05-18T13:13:28.698Z,36.67
2019-05-18T13:18:23.340Z,37.59
2019-05-18T13:23:17.945Z,36.87
2019-05-18T13:28:12.535Z,36.50
2019-05-18T13:33:07.143Z,36.85
2019-05-18T13:38:01.763Z,36.05
2019-05-18T13:42:56.407Z,35.77
2019-05-18T13:47:51.033Z,35.98
2019-05-18T13:52:45.612Z,36.12
2019-05-18T13:57:40.219Z,36.48
2019-05-18T14:02:34.991Z,36.52
2019-05-18T14:07:29.588Z,36.65
2019-05-18T14:12:24.170Z,36.60
2019-05-18T14:17:18.773Z,37.74
2019-05-18T14:22:13.365Z,37.03
2019-05-18T14:27:07.970Z,35.28
2019-05-18T14:32:02.565Z,35.14
2019-05-18T14:36:57.169Z,34.33
2019-05-18T14:41:51.780Z,34.74
2019-05-18T14:46:46.374Z,34.25
2019-05-18T14:51:40.983Z,34.68
2019-05-18T14:56:35.582Z,34.40
2019-05-18T15:01:30.185Z,34.75
2019-05-18T15:06:24.839Z,36.05
2019-05-18T15:11:19.516Z,36.38
2019-05-18T15:16:14.116Z,35.63
2019-05-18T15:21:08.880Z,35.18
2019-05-18T15:26:03.489Z,36.15
2019-05-18T15:30:58.109Z,35.44
2019-05-18T15:35:52.689Z,35.14
2019-05-18T15:40:47.292Z,33.69
2019-05-18T15:45:41.974Z,34.24
2019-05-18T15:50:36.583Z,33.52
2019-05-18T15:55:31.231Z,35.29
2019-05-18T16:00:26.120Z,36.85
2019-05-18T16:05:20.871Z,37.92
2019-05-18T16:10:17.188Z,37.41
2019-05-18T16:15:14.445Z,37.78
2019-05-18T16:20:10.071Z,37.57
2019-05-18T16:25:07.531Z,37.65
2019-05-18T16:30:02.213Z,37.93
2019-05-18T16:34:56.798Z,38.96
2019-05-18T16:39:51.396Z,38.12
2019-05-18T16:44:46.057Z,37.59
2019-05-18T16:49:40.724Z,40.21
2019-05-18T16:54:35.318Z,41.79
2019-05-18T16:59:30.003Z,40.89
2019-05-18T17:04:24.615Z,41.11
2019-05-18T17:09:19.204Z,41.36
2019-05-18T17:14:13.797Z,42.27
2019-05-18T17:19:08.660Z,42.84
2019-05-18T17:24:03.297Z,45.35
2019-05-18T17:28:57.880Z,45.45
2019-05-18T17:33:52.486Z,45.68
2019-05-18T17:38:47.094Z,46.10
2019-05-18T17:43:41.712Z,46.11
2019-05-18T17:48:36.319Z,46.35
2019-05-18T17:53:30.943Z,47.89
2019-05-18T17:58:25.529Z,49.11
2019-05-18T18:03:20.131Z,49.30
2019-05-18T18:08:14.738Z,50.55
2019-05-18T18:13:09.664Z,51.11
2019-05-18T18:18:04.751Z,52.03
2019-05-18T18:22:59.421Z,52.79
2019-05-18T18:27:54.068Z,53.71
2019-05-18T18:32:48.707Z,53.83
2019-05-18T18:37:43.318Z,53.24
2019-05-18T18:42:37.965Z,51.49
2019-05-18T18:47:32.566Z,51.67
2019-05-18T18:52:27.172Z,52.70
2019-05-18T18:57:21.765Z,54.50
2019-05-18T19:02:16.451Z,54.87
2019-05-18T19:07:11.038Z,54.95
2019-05-18T19:12:05.782Z,55.30
2019-05-18T19:17:00.382Z,55.64
2019-05-18T19:21:54.970Z,56.73
2019-05-18T19:26:49.576Z,56.55
2019-05-18T19:31:44.156Z,55.82
2019-05-18T19:36:38.756Z,55.59
2019-05-18T19:41:41.214Z,56.63
2019-05-18T19:46:35.792Z,58.51
2019-05-18T19:51:30.412Z,58.26
2019-05-18T19:56:24.977Z,59.30
2019-05-18T20:01:19.584Z,59.03
2019-05-18T20:06:14.229Z,59.44
2019-05-18T20:11:08.846Z,59.66
2019-05-18T20:16:03.420Z,61.86
2019-05-18T20:20:58.023Z,63.62
2019-05-18T20:25:52.671Z,65.43
2019-05-18T20:30:47.265Z,65.96
2019-05-18T20:35:41.846Z,66.47
2019-05-18T20:40:36.465Z,66.10
2019-05-18T20:45:31.230Z,66.23
2019-05-18T20:50:25.948Z,67.04
2019-05-18T20:55:20.710Z,68.06
2019-05-18T21:00:15.631Z,68.66
2019-05-18T21:05:10.355Z,68.04
2019-05-18T21:10:07.626Z,67.87
2019-05-18T21:15:02.336Z,67.29
2019-05-18T21:19:56.912Z,65.49
2019-05-18T21:24:51.508Z,65.69
2019-05-18T21:29:46.095Z,65.92
2019-05-18T21:34:40.701Z,67.37
2019-05-18T21:39:35.291Z,69.99
2019-05-18T21:44:29.887Z,73.19
2019-05-18T21:49:24.468Z,77.27
2019-05-18T21:54:19.075Z,79.56
2019-05-18T21:59:13.660Z,84.48
2019-05-18T22:04:08.339Z,86.20
2019-05-18T22:09:04.654Z,91.43
2019-05-18T22:13:59.233Z,92.17
2019-05-18T22:18:53.823Z,92.31
2019-05-18T22:23:48.792Z,94.96
2019-05-18T22:28:43.410Z,95.13
2019-05-18T22:33:38.012Z,93.41
2019-05-18T22:38:32.601Z,93.03
2019-05-18T22:43:27.206Z,94.36
2019-05-18T22:48:21.794Z,94.38
2019-05-18T22:53:16.421Z,93.65
2019-05-18T22:58:11.053Z,95.21
2019-05-18T23:03:05.655Z,96.50
2019-05-18T23:08:00.233Z,94.69
2019-05-18T23:12:54.847Z,93.03
2019-05-18T23:17:49.438Z,93.87
2019-05-18T23:22:44.029Z,95.11
2019-05-18T23:27:38.607Z,93.15
2019-05-18T23:32:33.209Z,94.42
2019-05-18T23:37:27.814Z,95.38
2019-05-18T23:42:22.407Z,94.51
2019-05-18T23:47:17.065Z,95.12
2019-05-18T23:52:11.721Z,96.08
2019-05-18T23:57:06.317Z,98.46
